createdAt,value
2022-10-17T00:01:56.711Z,4.83
2022-10-17T00:04:26.495Z,4.80
2022-10-17T00:06:57.841Z,4.75
2022-10-17T00:09:28.184Z,4.68
2022-10-17T00:12:00.700Z,4.62
2022-10-17T00:14:30.808Z,4.57
2022-10-17T00:17:01.486Z,4.53
2022-10-17T00:19:32.148Z,4.50
2022-10-17T00:22:03.400Z,4.49
2022-10-17T00:24:33.098Z,4.51
2022-10-17T00:27:03.208Z,4.49
2022-10-17T00:29:33.543Z,4.48
2022-10-17T00:32:03.646Z,4.47
2022-10-17T00:34:34.108Z,4.49
2022-10-17T00:37:05.701Z,4.50
2022-10-17T00:39:38.029Z,4.49
2022-10-17T00:42:12.237Z,4.47
2022-10-17T00:44:44.425Z,4.45
2022-10-17T00:47:20.749Z,4.45
2022-10-17T00:49:52.052Z,4.45
2022-10-17T00:52:25.705Z,4.46
2022-10-17T00:55:00.764Z,4.48
2022-10-17T00:57:33.469Z,4.46
2022-10-17T01:00:08.171Z,4.43
2022-10-17T01:02:39.277Z,4.42
2022-10-17T01:05:11.540Z,4.38
2022-10-17T01:07:43.666Z,4.31
2022-10-17T01:10:15.617Z,4.27
2022-10-17T01:13:10.016Z,4.28
2022-10-17T01:15:58.312Z,4.27
2022-10-17T01:18:45.941Z,4.25
2022-10-17T01:21:18.558Z,4.24
2022-10-17T01:23:53.161Z,4.22
2022-10-17T01:26:57.257Z,4.21
2022-10-17T01:30:05.486Z,4.19
2022-10-17T01:32:48.626Z,4.19
2022-10-17T01:35:31.305Z,4.18
2022-10-17T01:38:19.171Z,4.18
2022-10-17T01:41:15.830Z,4.17
2022-10-17T01:43:54.718Z,4.15
2022-10-17T01:46:50.951Z,4.15
2022-10-17T01:49:27.077Z,4.14
2022-10-17T01:52:08.469Z,4.14
2022-10-17T01:54:44.220Z,4.07
2022-10-17T01:57:28.008Z,4.02
2022-10-17T02:00:00.473Z,3.95
2022-10-17T02:02:32.149Z,3.86
2022-10-17T02:05:05.372Z,3.80
2022-10-17T02:07:36.129Z,3.76
2022-10-17T02:10:21.285Z,3.72
2022-10-17T02:13:11.108Z,3.63
2022-10-17T02:16:07.215Z,3.55
2022-10-17T02:18:51.045Z,3.49
2022-10-17T02:21:29.025Z,3.45
2022-10-17T02:24:17.834Z,3.43
2022-10-17T02:27:09.850Z,3.41
2022-10-17T02:29:59.398Z,3.41
2022-10-17T02:33:10.260Z,3.41
2022-10-17T02:35:46.113Z,3.43
2022-10-17T02:38:19.267Z,3.45
2022-10-17T02:40:53.479Z,3.48
2022-10-17T02:43:24.499Z,3.51
2022-10-17T02:45:54.954Z,3.48
2022-10-17T02:48:57.163Z,3.46
2022-10-17T02:51:42.588Z,3.45
2022-10-17T02:54:22.197Z,3.39
2022-10-17T02:56:56.263Z,3.36
2022-10-17T02:59:27.869Z,3.34
2022-10-17T03:01:57.430Z,3.33
2022-10-17T03:04:27.305Z,3.33
2022-10-17T03:06:58.214Z,3.32
2022-10-17T03:09:28.264Z,3.32
2022-10-17T03:11:58.234Z,3.31
2022-10-17T03:14:27.969Z,3.32
2022-10-17T03:16:57.166Z,3.31
2022-10-17T03:19:26.669Z,3.29
2022-10-17T03:21:57.214Z,3.26
2022-10-17T03:24:27.164Z,3.24
2022-10-17T03:26:56.841Z,3.23
2022-10-17T03:29:26.016Z,3.18
2022-10-17T03:31:56.439Z,3.15
2022-10-17T03:34:25.671Z,3.15
2022-10-17T03:36:55.777Z,3.14
2022-10-17T03:39:26.334Z,3.11
2022-10-17T03:41:55.941Z,3.08
2022-10-17T03:44:25.513Z,3.05
2022-10-17T03:46:55.623Z,3.02
2022-10-17T03:49:25.242Z,3.02
2022-10-17T03:51:54.303Z,2.99
2022-10-17T03:54:24.147Z,2.98
2022-10-17T03:56:53.663Z,2.96
2022-10-17T03:59:22.790Z,3.01
2022-10-17T04:02:00.538Z,3.05
2022-10-17T04:04:30.343Z,3.09
2022-10-17T04:06:59.433Z,3.11
2022-10-17T04:09:29.884Z,3.12
2022-10-17T04:12:19.043Z,3.12
2022-10-17T04:14:49.259Z,3.10
2022-10-17T04:17:18.769Z,3.04
2022-10-17T04:19:50.191Z,2.97
2022-10-17T04:22:23.471Z,2.91
2022-10-17T04:24:55.699Z,2.88
2022-10-17T04:27:46.052Z,2.85
2022-10-17T04:30:15.686Z,2.84
2022-10-17T04:32:44.757Z,2.78
2022-10-17T04:35:17.051Z,2.75
2022-10-17T04:37:49.552Z,2.73
2022-10-17T04:40:21.667Z,2.69
2022-10-17T04:42:50.975Z,2.67
2022-10-17T04:45:21.820Z,2.65
2022-10-17T04:47:53.776Z,2.65
2022-10-17T04:50:22.869Z,2.63
2022-10-17T04:53:09.406Z,2.63
2022-10-17T04:55:40.027Z,2.64
2022-10-17T04:58:08.787Z,2.66
2022-10-17T05:00:37.790Z,2.65
2022-10-17T05:03:22.734Z,2.66
2022-10-17T05:05:52.173Z,2.68
2022-10-17T05:08:20.811Z,2.71
2022-10-17T05:10:49.568Z,2.74
2022-10-17T05:13:18.095Z,2.78
2022-10-17T05:15:46.571Z,2.83
2022-10-17T05:18:15.150Z,2.87
2022-10-17T05:20:44.169Z,2.94
2022-10-17T05:23:13.735Z,3.00
2022-10-17T05:25:43.987Z,3.08
2022-10-17T05:28:12.982Z,3.17
2022-10-17T05:30:42.993Z,3.26
2022-10-17T05:33:11.687Z,3.36
2022-10-17T05:35:40.472Z,3.45
2022-10-17T05:38:09.187Z,3.56
2022-10-17T05:40:39.721Z,3.70
2022-10-17T05:43:10.023Z,3.83
2022-10-17T05:45:39.420Z,3.99
2022-10-17T05:48:09.424Z,4.13
2022-10-17T05:50:38.012Z,4.28
2022-10-17T05:53:11.416Z,4.41
2022-10-17T05:55:46.650Z,4.57
2022-10-17T05:58:22.083Z,4.72
2022-10-17T06:01:04.476Z,4.90
2022-10-17T06:03:34.411Z,5.07
2022-10-17T06:06:08.699Z,5.28
2022-10-17T06:08:38.853Z,5.56
2022-10-17T06:11:10.380Z,5.94
2022-10-17T06:13:40.150Z,6.35
2022-10-17T06:16:15.549Z,6.72
2022-10-17T06:18:44.168Z,7.08
2022-10-17T06:21:17.728Z,7.49
2022-10-17T06:23:48.634Z,7.90
2022-10-17T06:26:47.976Z,8.28
2022-10-17T06:29:17.792Z,8.64
2022-10-17T06:31:53.957Z,8.89
2022-10-17T06:34:22.951Z,9.17
2022-10-17T06:36:51.767Z,9.28
2022-10-17T06:39:21.128Z,9.55
2022-10-17T06:42:02.688Z,9.89
2022-10-17T06:44:54.542Z,10.38
2022-10-17T06:47:35.750Z,10.60
2022-10-17T06:50:12.396Z,10.90
2022-10-17T06:52:59.965Z,11.47
2022-10-17T06:55:45.874Z,11.76
2022-10-17T06:58:21.361Z,12.32
2022-10-17T07:01:01.007Z,12.50
2022-10-17T07:03:30.427Z,12.60
2022-10-17T07:05:59.703Z,12.72
2022-10-17T07:08:29.092Z,12.93
2022-10-17T07:10:58.819Z,13.00
2022-10-17T07:13:28.540Z,13.31
2022-10-17T07:16:02.058Z,13.48
2022-10-17T07:18:31.936Z,13.89
2022-10-17T07:21:01.239Z,13.96
2022-10-17T07:23:30.241Z,14.41
2022-10-17T07:26:03.275Z,14.47
2022-10-17T07:28:31.827Z,14.70
2022-10-17T07:31:10.296Z,14.89
2022-10-17T07:33:39.258Z,15.20
2022-10-17T07:36:08.713Z,15.07
2022-10-17T07:38:38.118Z,15.62
2022-10-17T07:41:09.255Z,15.72
2022-10-17T07:43:38.251Z,15.68
2022-10-17T07:46:08.804Z,16.10
2022-10-17T07:48:39.534Z,16.32
2022-10-17T07:51:10.271Z,16.36
2022-10-17T07:53:41.792Z,16.63
2022-10-17T07:56:13.464Z,17.02
2022-10-17T07:58:42.441Z,17.44
2022-10-17T08:01:15.662Z,17.48
2022-10-17T08:03:46.785Z,17.89
2022-10-17T08:06:15.911Z,18.21
2022-10-17T08:08:45.094Z,18.43
2022-10-17T08:11:15.660Z,18.65
2022-10-17T08:13:44.605Z,18.45
2022-10-17T08:16:13.934Z,18.85
2022-10-17T08:18:44.091Z,18.49
2022-10-17T08:21:13.726Z,18.55
2022-10-17T08:23:43.239Z,19.51
2022-10-17T08:26:13.703Z,19.93
2022-10-17T08:28:42.503Z,20.38
2022-10-17T08:31:14.823Z,20.82
2022-10-17T08:33:43.401Z,20.41
2022-10-17T08:36:15.090Z,20.67
2022-10-17T08:38:46.951Z,20.43
2022-10-17T08:41:55.544Z,20.66
2022-10-17T08:44:36.229Z,20.77
2022-10-17T08:47:20.171Z,20.18
2022-10-17T08:49:55.921Z,21.58
2022-10-17T08:52:33.270Z,21.99
2022-10-17T08:55:02.099Z,22.06
2022-10-17T08:57:31.128Z,21.80
2022-10-17T09:00:00.266Z,21.70
2022-10-17T09:02:39.112Z,21.40
2022-10-17T09:05:28.973Z,21.79
2022-10-17T09:08:03.722Z,22.72
2022-10-17T09:11:01.701Z,22.53
2022-10-17T09:13:39.272Z,22.69
2022-10-17T09:16:31.417Z,23.20
2022-10-17T09:19:10.731Z,22.65
2022-10-17T09:21:48.037Z,23.88
2022-10-17T09:24:39.856Z,24.15
2022-10-17T09:27:31.360Z,23.86
2022-10-17T09:30:46.199Z,23.83
2022-10-17T09:33:34.317Z,23.73
2022-10-17T09:36:09.626Z,24.25
2022-10-17T09:38:42.877Z,24.92
2022-10-17T09:41:46.422Z,25.46
2022-10-17T09:44:18.495Z,25.56
2022-10-17T09:47:15.712Z,25.81
2022-10-17T09:49:47.171Z,26.16
2022-10-17T09:52:41.209Z,26.54
2022-10-17T09:55:36.273Z,25.97
2022-10-17T09:58:06.387Z,25.99
2022-10-17T10:00:47.400Z,25.43
2022-10-17T10:03:22.300Z,24.52
2022-10-17T10:06:06.234Z,25.10
2022-10-17T10:08:38.104Z,25.82
2022-10-17T10:11:13.879Z,26.80
2022-10-17T10:13:43.668Z,26.44
2022-10-17T10:16:17.551Z,26.58
2022-10-17T10:18:48.769Z,25.90
2022-10-17T10:21:27.844Z,25.71
2022-10-17T10:24:14.990Z,26.18
2022-10-17T10:26:48.073Z,26.51
2022-10-17T10:29:34.662Z,26.81
2022-10-17T10:32:23.792Z,27.31
2022-10-17T10:34:55.307Z,27.36
2022-10-17T10:37:29.269Z,27.29
2022-10-17T10:40:01.329Z,26.67
2022-10-17T10:42:39.749Z,25.90
2022-10-17T10:45:35.889Z,26.09
2022-10-17T10:48:20.272Z,26.69
2022-10-17T10:50:57.868Z,27.10
2022-10-17T10:53:26.595Z,26.70
2022-10-17T10:56:00.421Z,26.50
2022-10-17T10:58:47.480Z,25.99
2022-10-17T11:01:30.534Z,26.47
2022-10-17T11:04:23.799Z,27.40
2022-10-17T11:06:59.475Z,27.94
2022-10-17T11:09:33.961Z,28.24
2022-10-17T11:12:07.019Z,28.29
2022-10-17T11:14:50.413Z,27.72
2022-10-17T11:17:35.289Z,27.62
2022-10-17T11:20:09.681Z,28.06
2022-10-17T11:23:03.401Z,28.18
2022-10-17T11:25:31.803Z,28.18
2022-10-17T11:28:04.846Z,28.61
2022-10-17T11:30:47.257Z,28.31
2022-10-17T11:33:40.743Z,28.21
2022-10-17T11:36:10.832Z,28.85
2022-10-17T11:39:09.424Z,29.36
2022-10-17T11:41:40.879Z,28.54
2022-10-17T11:44:43.384Z,29.00
2022-10-17T11:47:49.831Z,29.13
2022-10-17T11:53:17.125Z,29.50
2022-10-17T11:55:47.532Z,29.26
2022-10-17T11:58:25.191Z,29.43
2022-10-17T12:01:12.547Z,30.01
2022-10-17T12:04:05.160Z,30.45
2022-10-17T12:07:02.497Z,30.87
2022-10-17T12:09:50.025Z,30.85
2022-10-17T12:12:37.183Z,30.22
2022-10-17T12:15:26.495Z,29.81
2022-10-17T12:17:58.553Z,29.42
2022-10-17T12:20:37.770Z,29.58
2022-10-17T12:23:23.364Z,29.35
2022-10-17T12:26:01.162Z,29.76
2022-10-17T12:28:49.856Z,29.59
2022-10-17T12:31:19.388Z,29.94
2022-10-17T12:33:57.673Z,29.92
2022-10-17T12:36:29.592Z,29.90
2022-10-17T12:39:03.925Z,29.34
2022-10-17T12:41:38.722Z,30.11
2022-10-17T12:44:14.265Z,30.10
2022-10-17T12:46:58.582Z,29.79
2022-10-17T12:49:56.445Z,30.30
2022-10-17T12:52:27.413Z,29.99
2022-10-17T12:55:12.014Z,30.04
2022-10-17T12:57:48.818Z,30.35
2022-10-17T13:01:05.149Z,30.76
2022-10-17T13:03:42.725Z,30.63
2022-10-17T13:06:22.825Z,30.62
2022-10-17T13:09:03.568Z,30.61
2022-10-17T13:11:36.599Z,30.21
2022-10-17T13:14:13.029Z,29.84
2022-10-17T13:16:52.701Z,30.11
2022-10-17T13:19:24.323Z,30.45
2022-10-17T13:22:06.500Z,30.58
2022-10-17T13:24:38.803Z,30.43
2022-10-17T13:27:25.207Z,29.22
2022-10-17T13:29:56.438Z,28.36
2022-10-17T13:32:28.149Z,28.42
2022-10-17T13:35:10.290Z,28.25
2022-10-17T13:37:41.955Z,28.48
2022-10-17T13:40:49.664Z,29.03
2022-10-17T13:43:21.337Z,29.75
2022-10-17T13:45:55.686Z,29.76
2022-10-17T13:48:27.012Z,29.97
2022-10-17T13:51:01.762Z,30.08
2022-10-17T13:53:37.500Z,29.28
2022-10-17T13:56:29.251Z,29.46
2022-10-17T13:59:05.234Z,29.71
2022-10-17T14:01:33.870Z,29.73
2022-10-17T14:04:09.418Z,29.55
2022-10-17T14:06:49.804Z,29.82
2022-10-17T14:09:30.502Z,29.39
2022-10-17T14:12:12.953Z,29.03
2022-10-17T14:15:09.352Z,28.55
2022-10-17T14:17:38.754Z,28.35
2022-10-17T14:23:21.559Z,28.25
2022-10-17T14:25:47.107Z,28.03
2022-10-17T14:28:17.121Z,28.02
2022-10-17T14:30:56.724Z,27.56
2022-10-17T14:33:31.477Z,27.55
2022-10-17T14:36:03.117Z,27.42
2022-10-17T14:38:32.094Z,27.13
2022-10-17T14:44:01.689Z,26.11
2022-10-17T14:46:30.426Z,25.49
2022-10-17T14:49:24.309Z,24.84
2022-10-17T14:52:28.514Z,24.31
2022-10-17T14:54:58.622Z,23.81
2022-10-17T14:57:35.211Z,23.54
2022-10-17T15:00:04.409Z,23.36
2022-10-17T15:02:33.170Z,23.14
2022-10-17T15:05:01.785Z,22.95
2022-10-17T15:07:30.247Z,22.79
2022-10-17T15:09:58.678Z,22.47
2022-10-17T15:12:27.262Z,22.15
2022-10-17T15:14:55.908Z,21.59
2022-10-17T15:17:30.866Z,21.26
2022-10-17T15:19:59.534Z,20.64
2022-10-17T15:22:28.128Z,19.94
2022-10-17T15:24:57.057Z,19.12
2022-10-17T15:27:27.131Z,18.72
2022-10-17T15:29:55.615Z,18.15
2022-10-17T15:32:24.046Z,17.74
2022-10-17T15:34:52.518Z,17.29
2022-10-17T15:37:23.852Z,16.94
2022-10-17T16:08:23.803Z,14.81
2022-10-17T16:10:53.356Z,14.58
2022-10-17T16:13:24.486Z,14.45
2022-10-17T16:15:52.990Z,14.30
2022-10-17T16:18:21.556Z,14.16
2022-10-17T16:20:50.625Z,13.98
2022-10-17T16:23:19.052Z,13.77
2022-10-17T16:25:47.514Z,13.54
2022-10-17T16:28:15.887Z,13.36
2022-10-17T16:30:46.427Z,13.18
2022-10-17T16:33:15.221Z,13.03
2022-10-17T16:35:43.754Z,12.93
2022-10-17T16:38:12.107Z,12.83
2022-10-17T16:40:41.258Z,12.73
2022-10-17T16:43:13.443Z,12.65
2022-10-17T16:45:42.026Z,12.60
2022-10-17T16:48:11.002Z,12.54
2022-10-17T16:50:40.840Z,12.47
2022-10-17T16:53:09.403Z,12.41
2022-10-17T16:55:37.755Z,12.32
2022-10-17T16:58:06.256Z,12.24
2022-10-17T17:00:34.929Z,12.15
2022-10-17T17:03:03.310Z,12.07
2022-10-17T17:05:31.741Z,12.00
2022-10-17T17:08:01.212Z,11.94
2022-10-17T17:10:29.795Z,11.87
2022-10-17T17:12:58.514Z,11.80
2022-10-17T17:15:26.805Z,11.73
2022-10-17T17:17:55.985Z,11.66
2022-10-17T17:20:24.732Z,11.60
2022-10-17T17:22:53.166Z,11.52
2022-10-17T17:25:22.729Z,11.42
2022-10-17T17:27:51.053Z,11.32
2022-10-17T17:30:19.528Z,11.23
2022-10-17T17:32:48.010Z,11.15
2022-10-17T17:35:16.462Z,11.07
2022-10-17T17:37:44.846Z,10.97
2022-10-17T17:40:13.200Z,10.88
2022-10-17T17:42:41.582Z,10.80
2022-10-17T17:45:10.355Z,10.73
2022-10-17T17:47:38.747Z,10.68
2022-10-17T17:50:07.397Z,10.63
2022-10-17T17:52:35.833Z,10.57
2022-10-17T17:55:04.504Z,10.53
2022-10-17T17:57:32.778Z,10.49
2022-10-17T18:00:01.198Z,10.45
2022-10-17T18:02:32.850Z,10.41
2022-10-17T18:05:01.860Z,10.37
2022-10-17T18:07:30.724Z,10.31
2022-10-17T18:09:59.234Z,10.25
2022-10-17T18:12:27.802Z,10.18
2022-10-17T18:14:56.481Z,10.11
2022-10-17T18:17:24.921Z,10.06
2022-10-17T18:19:53.275Z,10.02
2022-10-17T18:22:23.321Z,9.99
2022-10-17T18:24:51.547Z,9.95
2022-10-17T18:27:19.965Z,9.90
2022-10-17T18:29:48.977Z,9.85
2022-10-17T18:32:17.550Z,9.79
2022-10-17T18:34:46.026Z,9.76
2022-10-17T18:37:14.403Z,9.71
2022-10-17T18:39:42.779Z,9.68
2022-10-17T18:42:12.210Z,9.65
2022-10-17T18:44:40.631Z,9.60
2022-10-17T18:47:09.142Z,9.55
2022-10-17T18:49:37.624Z,9.50
2022-10-17T18:52:06.210Z,9.44
2022-10-17T18:54:35.200Z,9.37
2022-10-17T18:57:03.786Z,9.33
2022-10-17T18:59:32.686Z,9.30
2022-10-17T19:02:01.228Z,9.28
2022-10-17T19:04:30.012Z,9.25
2022-10-17T19:06:58.375Z,9.22
2022-10-17T19:09:27.126Z,9.18
2022-10-17T19:11:56.840Z,9.15
2022-10-17T19:14:26.534Z,9.12
2022-10-17T19:16:55.524Z,9.08
2022-10-17T19:19:25.817Z,9.04
2022-10-17T19:21:54.412Z,8.99
2022-10-17T19:24:28.196Z,8.93
2022-10-17T19:27:02.972Z,8.88
2022-10-17T19:29:32.368Z,8.80
2022-10-17T19:32:02.816Z,8.75
2022-10-17T19:34:31.308Z,8.72
2022-10-17T19:37:00.006Z,8.65
2022-10-17T19:39:28.487Z,8.59
2022-10-17T19:41:57.073Z,8.52
2022-10-17T19:44:26.730Z,8.44
2022-10-17T19:46:57.097Z,8.39
2022-10-17T19:49:25.746Z,8.37
2022-10-17T19:51:54.199Z,8.35
2022-10-17T19:54:22.722Z,8.36
2022-10-17T19:56:51.081Z,8.32
2022-10-17T19:59:19.715Z,8.31
2022-10-17T20:01:48.446Z,8.29
2022-10-17T20:04:16.934Z,8.25
2022-10-17T20:06:45.309Z,8.23
2022-10-17T20:09:17.006Z,8.21
2022-10-17T20:11:46.495Z,8.17
2022-10-17T20:14:15.061Z,8.16
2022-10-17T20:16:45.123Z,8.12
2022-10-17T20:19:13.923Z,8.11
2022-10-17T20:21:43.209Z,8.09
2022-10-17T20:24:15.979Z,8.05
2022-10-17T20:26:45.403Z,8.01
2022-10-17T20:29:17.875Z,7.98
2022-10-17T20:31:47.458Z,7.94
2022-10-17T20:34:18.065Z,7.91
2022-10-17T20:36:47.793Z,7.88
2022-10-17T20:39:18.038Z,7.83
2022-10-17T20:41:47.084Z,7.80
2022-10-17T20:44:16.137Z,7.74
2022-10-17T20:47:00.635Z,7.68
2022-10-17T20:49:31.924Z,7.58
2022-10-17T20:52:01.339Z,7.48
2022-10-17T20:54:30.236Z,7.43
2022-10-17T20:57:02.439Z,7.37
2022-10-17T20:59:36.225Z,7.33
2022-10-17T21:02:05.715Z,7.29
2022-10-17T21:04:45.817Z,7.26
2022-10-17T21:07:15.552Z,7.23
2022-10-17T21:09:44.715Z,7.23
2022-10-17T21:12:18.177Z,7.20
2022-10-17T21:14:54.897Z,7.18
2022-10-17T21:17:24.024Z,7.16
2022-10-17T21:19:52.895Z,7.14
2022-10-17T21:22:21.912Z,7.13
2022-10-17T21:24:50.871Z,7.11
2022-10-17T21:27:19.988Z,7.07
2022-10-17T21:29:49.061Z,7.07
2022-10-17T21:32:31.977Z,7.05
2022-10-17T21:35:07.544Z,7.03
2022-10-17T21:37:36.312Z,7.02
2022-10-17T21:40:06.003Z,7.00
2022-10-17T21:42:35.244Z,6.99
2022-10-17T21:45:10.691Z,6.98
2022-10-17T21:48:11.130Z,6.95
2022-10-17T21:50:33.871Z,6.92
2022-10-17T21:53:02.783Z,6.92
2022-10-17T21:55:31.451Z,6.89
2022-10-17T21:58:00.383Z,6.86
2022-10-17T22:00:29.123Z,6.84
2022-10-17T22:02:58.021Z,6.82
2022-10-17T22:05:26.868Z,6.79
2022-10-17T22:07:55.665Z,6.79
2022-10-17T22:10:24.501Z,6.79
2022-10-17T22:12:53.398Z,6.79
2022-10-17T22:15:22.322Z,6.76
2022-10-17T22:17:51.102Z,6.72
2022-10-17T22:20:20.001Z,6.68
2022-10-17T22:22:49.325Z,6.63
2022-10-17T22:25:18.135Z,6.59
2022-10-17T22:27:48.803Z,6.54
2022-10-17T22:30:19.076Z,6.49
2022-10-17T22:32:48.620Z,6.45
2022-10-17T22:35:18.536Z,6.39
2022-10-17T22:37:47.762Z,6.33
2022-10-17T22:40:16.589Z,6.29
2022-10-17T22:42:45.570Z,6.24
2022-10-17T22:45:15.970Z,6.20
2022-10-17T22:47:45.176Z,6.17
2022-10-17T22:50:15.275Z,6.15
2022-10-17T22:52:44.371Z,6.14
2022-10-17T22:55:14.202Z,6.16
2022-10-17T22:57:43.668Z,6.16
2022-10-17T23:00:13.886Z,6.17
2022-10-17T23:02:44.612Z,6.18
2022-10-17T23:05:14.918Z,6.15
2022-10-17T23:07:44.239Z,6.11
2022-10-17T23:10:14.554Z,6.07
2022-10-17T23:12:44.223Z,6.06
2022-10-17T23:15:13.274Z,6.03
2022-10-17T23:17:43.138Z,5.97
2022-10-17T23:20:13.809Z,5.89
2022-10-17T23:22:43.745Z,5.83
2022-10-17T23:25:13.137Z,5.79
2022-10-17T23:27:43.690Z,5.77
2022-10-17T23:30:15.182Z,5.76
2022-10-17T23:32:46.413Z,5.76
2022-10-17T23:35:15.695Z,5.69
2022-10-17T23:37:45.453Z,5.58
2022-10-17T23:40:15.417Z,5.48
2022-10-17T23:42:45.795Z,5.34
2022-10-17T23:45:15.688Z,5.24
2022-10-17T23:47:44.922Z,5.21
2022-10-17T23:50:14.482Z,5.19
2022-10-17T23:52:45.119Z,5.20
2022-10-17T23:55:15.036Z,5.22
2022-10-17T23:57:44.363Z,5.23
